Time;durP1;ratioP1;P1;durP2;ratioP2;P2;SDS_P1;SDS_P2;PMS_P1;PMS_P2;Temp;Humidity;BMP_temperature;BMP_pressure;BME280_temperature;BME280_humidity;BME280_pressure;Samples;Min_cycle;Max_cycle;Signal;HPM_P1;HPM_P2
2022/01/28 00:01:06;;;;;;;18.48;2.70;;;;;;;4.75;82.50;102819.34;5071768;28;20272;-73
2022/01/28 00:03:37;;;;;;;14.57;2.70;;;;;;;4.79;82.38;102825.31;5074498;28;20476;-71
2022/01/28 00:06:04;;;;;;;13.13;3.15;;;;;;;4.77;82.64;102832.63;5074406;28;20463;-71
2022/01/28 00:08:29;;;;;;;18.67;2.65;;;;;;;4.77;82.72;102840.66;5074052;28;20024;-74
2022/01/28 00:10:55;;;;;;;14.88;2.70;;;;;;;4.79;82.62;102846.75;5074004;28;20043;-75
2022/01/28 00:13:24;;;;;;;18.52;3.13;;;;;;;4.76;82.57;102855.09;5072921;28;20032;-72
2022/01/28 00:39:46;;;;;;;14.88;2.72;;;;;;;4.66;82.36;102872.97;5073429;28;20041;-74
2022/01/28 00:42:12;;;;;;;14.80;3.05;;;;;;;4.60;82.47;102869.00;5073923;28;20035;-71
2022/01/28 00:44:37;;;;;;;14.80;3.75;;;;;;;4.59;82.40;102868.16;5073340;28;20024;-68
2022/01/28 00:47:03;;;;;;;25.42;3.85;;;;;;;4.57;82.60;102858.53;5073219;28;20399;-76
2022/01/28 00:49:28;;;;;;;13.85;2.83;;;;;;;4.58;82.63;102865.59;5073363;28;20093;-73
2022/01/28 00:51:54;;;;;;;14.95;2.78;;;;;;;4.58;82.35;102862.94;5071941;28;20456;-69
2022/01/28 00:54:19;;;;;;;16.40;2.60;;;;;;;4.53;82.40;102857.97;5073369;28;20028;-72
2022/01/28 00:56:46;;;;;;;18.60;3.25;;;;;;;4.55;82.24;102865.88;5073139;28;20401;-72
2022/01/28 00:59:11;;;;;;;17.40;2.85;;;;;;;4.55;82.07;102868.56;5071884;28;20101;-71
2022/01/28 01:01:37;;;;;;;13.75;2.70;;;;;;;4.58;82.16;102868.28;5070884;28;20032;-75
2022/01/28 01:04:03;;;;;;;14.20;2.88;;;;;;;4.58;82.36;102873.66;5072793;28;20391;-75
2022/01/28 01:06:29;;;;;;;19.75;3.13;;;;;;;4.58;81.98;102873.66;5072857;28;20407;-75
2022/01/28 01:08:54;;;;;;;13.13;2.67;;;;;;;4.58;82.44;102870.97;5071132;28;20070;-76
2022/01/28 01:11:22;;;;;;;20.20;3.63;;;;;;;4.61;81.76;102876.91;5073108;28;20387;-74
2022/01/28 01:13:49;;;;;;;15.50;3.17;;;;;;;4.58;82.01;102873.66;5072786;28;20024;-76
2022/01/28 01:16:19;;;;;;;15.82;2.60;;;;;;;4.58;81.79;102881.69;5072710;28;20040;-71
2022/01/28 01:21:15;;;;;;;22.60;3.03;;;;;;;4.59;81.61;102880.72;5072887;28;20043;-71
2022/01/28 01:23:49;;;;;;;17.92;2.70;;;;;;;4.61;81.82;102886.78;5072895;28;20028;-74
2022/01/28 01:26:15;;;;;;;15.48;2.30;;;;;;;4.60;81.57;102874.34;5072821;28;20033;-74
2022/01/28 01:28:42;;;;;;;13.57;2.42;;;;;;;4.57;81.74;102880.00;5072827;28;20035;-75
2022/01/28 01:31:12;;;;;;;12.63;2.75;;;;;;;4.54;81.37;102890.97;5072747;28;20490;-71
2022/01/28 01:34:22;;;;;;;14.15;2.30;;;;;;;4.54;81.77;102896.34;5072771;28;20033;-70
2022/01/28 01:36:26;;;;;;;14.75;2.53;;;;;;;4.47;81.98;102888.00;5064226;28;20132;-75
2022/01/28 01:38:52;;;;;;;16.60;2.83;;;;;;;4.46;82.20;102888.97;5072608;28;20111;-76
2022/01/28 01:41:28;;;;;;;12.40;3.17;;;;;;;4.36;82.48;102888.09;5072638;28;20029;-76
2022/01/28 01:44:07;;;;;;;17.63;3.00;;;;;;;4.34;82.69;102900.78;5072494;28;20028;-74
2022/01/28 01:46:56;;;;;;;20.15;2.80;;;;;;;4.33;82.96;102918.66;5072686;28;20032;-71
2022/01/28 01:52:05;;;;;;;14.88;2.60;;;;;;;4.30;83.13;102921.63;5072086;28;20039;-73
2022/01/28 01:54:40;;;;;;;15.00;2.97;;;;;;;4.32;83.50;102930.41;5071381;28;20175;-74
2022/01/28 01:57:08;;;;;;;17.95;2.85;;;;;;;4.28;83.39;102928.94;5072240;28;20035;-72
2022/01/28 01:59:35;;;;;;;14.85;2.80;;;;;;;4.29;83.72;102932.47;5072092;28;20533;-74
2022/01/28 02:02:01;;;;;;;15.55;2.72;;;;;;;4.29;83.56;102946.75;5069715;28;20040;-72
2022/01/28 02:04:26;;;;;;;20.40;3.20;;;;;;;4.28;83.69;102949.56;5072428;28;20024;-70
2022/01/28 02:06:52;;;;;;;20.50;3.42;;;;;;;4.28;83.37;102950.41;5072121;28;20081;-72
2022/01/28 02:09:17;;;;;;;18.25;3.55;;;;;;;4.29;83.85;102953.91;5072337;28;20028;-77
2022/01/28 02:11:43;;;;;;;15.93;3.67;;;;;;;4.28;83.72;102958.44;5072397;28;20103;-74
2022/01/28 02:14:08;;;;;;;13.40;2.38;;;;;;;4.25;83.63;102962.22;5072074;28;20025;-71
2022/01/28 02:16:34;;;;;;;17.48;2.75;;;;;;;4.25;83.61;102958.69;5072313;28;20040;-72
2022/01/28 02:19:00;;;;;;;20.13;3.50;;;;;;;4.26;83.79;102963.09;5070809;28;20494;-76
2022/01/28 02:21:26;;;;;;;14.95;2.50;;;;;;;4.28;83.46;102966.47;5075196;28;20047;-75
2022/01/28 02:23:57;;;;;;;19.77;3.00;;;;;;;4.25;83.44;102970.25;5076014;28;20460;-70
2022/01/28 02:26:22;;;;;;;16.92;2.72;;;;;;;4.26;83.56;102968.44;5076258;28;20194;-74
2022/01/28 02:28:52;;;;;;;11.70;2.38;;;;;;;4.23;83.56;102968.72;5075926;28;20112;-73
2022/01/28 02:31:22;;;;;;;16.75;3.22;;;;;;;4.23;84.18;102963.34;5076356;28;20025;-73
2022/01/28 02:33:48;;;;;;;19.50;3.08;;;;;;;4.26;84.05;102968.44;5075844;28;20029;-70
2022/01/28 02:36:13;;;;;;;17.83;3.10;;;;;;;4.26;83.99;102974.66;5076059;28;20028;-73
2022/01/28 02:38:39;;;;;;;15.35;2.78;;;;;;;4.26;83.80;102971.97;5075922;28;20353;-73
2022/01/28 02:41:06;;;;;;;17.02;2.80;;;;;;;4.27;84.01;102962.09;5075793;28;20505;-74
2022/01/28 02:43:43;;;;;;;15.20;2.70;;;;;;;4.26;84.11;102963.94;5074617;28;20036;-75
2022/01/28 02:46:17;;;;;;;11.82;2.38;;;;;;;4.25;83.86;102970.25;5075678;28;20468;-76
2022/01/28 02:48:54;;;;;;;17.90;2.70;;;;;;;4.21;84.30;102971.53;5075823;28;20125;-72
2022/01/28 02:51:21;;;;;;;20.27;2.97;;;;;;;4.17;84.11;102972.75;5074596;28;20383;-75
2022/01/28 02:53:58;;;;;;;16.38;2.83;;;;;;;4.16;84.64;102978.25;5075750;28;20036;-72
2022/01/28 02:58:56;;;;;;;20.85;3.03;;;;;;;4.18;84.28;102992.34;5075344;28;20463;-74
2022/01/28 03:01:21;;;;;;;18.33;3.10;;;;;;;4.15;84.41;102981.91;5072565;28;20049;-74
2022/01/28 03:03:49;;;;;;;17.52;2.70;;;;;;;4.11;84.75;102985.81;5075544;28;20029;-72
2022/01/28 03:06:16;;;;;;;19.80;3.30;;;;;;;4.12;84.44;102992.88;5075442;28;20090;-76
2022/01/28 03:08:48;;;;;;;15.57;2.85;;;;;;;4.10;84.66;102994.84;5074076;28;20515;-74
2022/01/28 03:16:27;;;;;;;18.52;2.97;;;;;;;4.07;84.96;103001.31;5075247;28;20487;-76
2022/01/28 03:18:57;;;;;;;14.60;2.83;;;;;;;4.05;85.02;103004.13;5074949;28;20032;-72
2022/01/28 03:23:49;;;;;;;14.82;3.03;;;;;;;4.07;85.42;103002.13;5074616;28;20036;-72
2022/01/28 03:26:15;;;;;;;15.52;2.78;;;;;;;4.07;85.44;103009.34;5074829;28;20036;-73
2022/01/28 03:28:40;;;;;;;15.15;2.90;;;;;;;4.09;85.18;103015.41;5074875;28;20082;-75
2022/01/28 03:31:06;;;;;;;16.27;2.83;;;;;;;4.10;85.17;103008.25;5073012;28;20038;-75
2022/01/28 03:33:31;;;;;;;20.55;3.28;;;;;;;4.11;85.33;103007.25;5074927;28;20033;-75
2022/01/28 03:35:56;;;;;;;19.42;3.03;;;;;;;4.12;85.81;103001.75;5106926;28;20040;-75
2022/01/28 03:38:22;;;;;;;19.35;2.95;;;;;;;4.11;85.56;103007.25;5105276;28;20043;-72
2022/01/28 03:40:49;;;;;;;17.92;2.80;;;;;;;4.13;86.14;103011.50;5074912;28;20040;-75
2022/01/28 03:43:14;;;;;;;15.23;2.83;;;;;;;4.13;85.84;103005.31;5074690;28;20029;-72
2022/01/28 03:45:40;;;;;;;15.98;3.25;;;;;;;4.18;85.93;103013.78;5074785;28;20119;-74
2022/01/28 03:48:05;;;;;;;12.95;2.45;;;;;;;4.17;85.84;103009.44;5074423;28;20024;-76
2022/01/28 03:50:33;;;;;;;14.77;2.92;;;;;;;4.17;85.78;103006.75;5074960;28;20036;-75
2022/01/28 03:53:00;;;;;;;11.90;2.75;;;;;;;4.15;85.61;103014.06;5072879;28;20094;-74
2022/01/28 03:55:25;;;;;;;10.23;2.30;;;;;;;4.16;85.93;103013.09;5074391;28;20032;-72
2022/01/28 03:57:50;;;;;;;17.17;2.95;;;;;;;4.18;85.78;103008.44;5074022;28;20025;-74
2022/01/28 04:00:16;;;;;;;11.13;2.22;;;;;;;4.20;85.51;103017.22;5074161;28;20032;-74
2022/01/28 04:02:44;;;;;;;16.17;2.70;;;;;;;4.19;85.56;103031.59;5070800;28;20035;-76
2022/01/28 04:11:25;;;;;;;12.25;2.17;;;;;;;4.17;85.40;103031.72;5074163;28;20024;-76
2022/01/28 04:13:26;;;;;;;15.98;2.30;;;;;;;4.16;85.70;103039.88;5073978;28;20545;-74
2022/01/28 04:16:27;;;;;;;12.68;2.50;;;;;;;4.16;85.44;103027.31;5074072;28;20047;-75
2022/01/28 04:18:49;;;;;;;9.05;2.20;;;;;;;4.16;85.66;103037.19;5073576;28;20094;-72
2022/01/28 04:21:15;;;;;;;10.57;2.35;;;;;;;4.15;85.73;103039.03;5073855;28;20025;-74
2022/01/28 04:23:40;;;;;;;9.30;2.25;;;;;;;4.16;85.38;103039.88;5073988;28;20033;-71
2022/01/28 04:26:06;;;;;;;7.78;1.63;;;;;;;4.12;85.60;103036.59;5073391;28;20040;-74
2022/01/28 04:28:31;;;;;;;8.35;2.15;;;;;;;4.12;86.00;103041.94;5073560;28;20399;-72
2022/01/28 04:30:57;;;;;;;11.48;2.08;;;;;;;4.13;86.15;103034.78;5072337;28;20120;-73
2022/01/28 04:33:22;;;;;;;12.07;2.03;;;;;;;4.11;85.87;103050.97;5073856;28;20032;-69
2022/01/28 04:35:51;;;;;;;14.93;2.33;;;;;;;4.10;86.43;103051.13;5073745;28;20024;-76
2022/01/28 04:40:58;;;;;;;19.88;3.03;;;;;;;4.12;87.03;103059.88;5073705;28;20044;-73
2022/01/28 04:43:31;;;;;;;15.95;2.70;;;;;;;4.08;87.26;103054.75;5073207;28;20032;-75
2022/01/28 04:46:07;;;;;;;18.17;2.80;;;;;;;4.06;87.61;103047.81;5073333;28;20039;-76
2022/01/28 04:48:50;;;;;;;14.88;2.88;;;;;;;4.07;87.49;103061.09;5073494;28;20035;-73
2022/01/28 04:51:30;;;;;;;15.65;3.25;;;;;;;4.03;87.66;103059.66;5073270;28;20032;-70
2022/01/28 04:54:34;;;;;;;18.08;3.63;;;;;;;4.01;87.61;103066.97;5105797;28;20478;-69
2022/01/28 05:26:23;;;;;;;20.60;3.60;;;;;;;3.71;88.60;103103.34;5072926;28;20089;-74
2022/01/28 05:28:48;;;;;;;21.20;4.10;;;;;;;3.66;88.06;103097.47;5072814;28;20494;-74
2022/01/28 05:31:15;;;;;;;15.85;3.28;;;;;;;3.61;88.54;103091.66;5072602;28;20185;-76
2022/01/28 05:33:40;;;;;;;14.07;3.65;;;;;;;3.58;88.70;103101.75;5072446;28;20032;-72
2022/01/28 05:36:06;;;;;;;16.40;3.75;;;;;;;3.52;88.71;103092.41;5072801;28;20028;-74
2022/01/28 05:38:31;;;;;;;13.27;3.30;;;;;;;3.50;87.85;103097.00;5072652;28;20032;-74
2022/01/28 05:40:56;;;;;;;17.67;3.70;;;;;;;3.46;88.66;103100.94;5072729;28;20035;-75
2022/01/28 05:43:21;;;;;;;14.40;3.60;;;;;;;3.42;87.73;103110.16;5072380;28;20444;-74
2022/01/28 05:45:47;;;;;;;14.70;3.70;;;;;;;3.39;88.88;103127.31;5072664;28;20029;-74
2022/01/28 05:48:12;;;;;;;14.77;3.88;;;;;;;3.40;88.86;103125.47;5072344;28;20043;-73
2022/01/28 05:50:37;;;;;;;19.38;4.63;;;;;;;3.37;88.46;103121.25;5072511;28;20028;-74
2022/01/28 05:53:03;;;;;;;19.20;3.78;;;;;;;3.39;89.00;103121.13;5071968;28;20105;-74
2022/01/28 05:55:29;;;;;;;21.35;3.88;;;;;;;3.37;89.19;103113.22;5072375;28;20135;-72
2022/01/28 05:57:54;;;;;;;17.13;3.88;;;;;;;3.40;88.51;103125.47;5072141;28;20185;-74
2022/01/28 06:00:19;;;;;;;19.73;4.25;;;;;;;3.42;88.54;103123.56;5072202;28;20512;-74
2022/01/28 06:02:45;;;;;;;20.58;3.92;;;;;;;3.35;88.29;103125.84;5102408;28;20063;-72
2022/01/28 06:05:10;;;;;;;13.85;3.25;;;;;;;3.30;87.70;103128.88;5072142;28;20057;-74
2022/01/28 06:07:41;;;;;;;17.27;3.97;;;;;;;3.28;87.01;103130.84;5104950;28;20035;-70
2022/01/28 06:10:10;;;;;;;17.20;3.85;;;;;;;3.24;87.95;103147.25;5072065;28;20383;-75
2022/01/28 06:12:43;;;;;;;15.82;3.33;;;;;;;3.25;88.67;103154.31;5072425;28;20036;-72
2022/01/28 06:15:10;;;;;;;17.73;4.13;;;;;;;3.24;88.69;103158.81;5072207;28;20032;-72
2022/01/28 06:17:35;;;;;;;12.52;3.05;;;;;;;3.21;87.81;103159.03;5072330;28;20074;-72
2022/01/28 06:20:02;;;;;;;15.88;4.13;;;;;;;3.14;87.65;103149.78;5071714;28;20032;-74
2022/01/28 06:22:28;;;;;;;15.57;3.45;;;;;;;3.12;87.82;103155.25;5072381;28;20482;-73
2022/01/28 06:24:53;;;;;;;13.82;3.30;;;;;;;3.08;87.36;103156.47;5072219;28;20032;-70
2022/01/28 06:27:18;;;;;;;12.75;3.65;;;;;;;3.01;87.24;103161.44;5071986;28;20043;-71
2022/01/28 06:29:44;;;;;;;20.75;3.55;;;;;;;2.95;87.78;103164.59;5070801;28;20149;-74
2022/01/28 06:32:11;;;;;;;18.60;4.15;;;;;;;2.92;87.38;103164.81;5071924;28;20035;-74
2022/01/28 06:34:38;;;;;;;12.73;4.13;;;;;;;2.87;86.98;103172.34;5072129;28;20041;-75
2022/01/28 06:37:04;;;;;;;11.73;3.22;;;;;;;2.82;87.32;103179.84;5071855;28;20495;-72
2022/01/28 06:39:32;;;;;;;13.73;3.15;;;;;;;2.83;87.26;103187.75;5072015;28;20115;-73
2022/01/28 06:41:57;;;;;;;14.38;3.70;;;;;;;2.76;87.15;103188.34;5072070;28;20082;-69
2022/01/28 06:44:23;;;;;;;12.85;3.55;;;;;;;2.74;86.46;103187.63;5071611;28;20033;-76
2022/01/28 06:46:48;;;;;;;14.98;3.22;;;;;;;2.72;86.88;103190.41;5071732;28;20086;-70
2022/01/28 06:49:14;;;;;;;12.27;3.22;;;;;;;2.67;86.39;103189.88;5071663;28;20032;-71
2022/01/28 06:51:39;;;;;;;15.35;3.75;;;;;;;2.61;87.23;103191.22;5070708;28;20036;-72
2022/01/28 06:54:07;;;;;;;16.42;3.95;;;;;;;2.63;87.37;103191.94;5071726;28;20111;-71
2022/01/28 06:56:32;;;;;;;12.48;3.05;;;;;;;2.59;87.16;103198.47;5071976;28;20503;-75
2022/01/28 06:58:58;;;;;;;14.07;3.47;;;;;;;2.59;86.44;103217.19;5104106;28;20068;-73
2022/01/28 07:01:23;;;;;;;15.07;3.67;;;;;;;2.52;86.46;103217.75;5101665;28;20480;-72
2022/01/28 07:03:48;;;;;;;16.10;3.45;;;;;;;2.50;86.98;103223.22;5071858;28;20111;-74
2022/01/28 07:06:14;;;;;;;15.98;3.63;;;;;;;2.48;86.88;103231.34;5072636;28;20456;-73
2022/01/28 07:08:39;;;;;;;11.52;3.20;;;;;;;2.48;87.00;103233.19;5108119;28;20074;-73
2022/01/28 07:11:07;;;;;;;13.52;3.53;;;;;;;2.46;86.73;103238.66;5107863;28;20021;-74
2022/01/28 07:13:33;;;;;;;11.77;3.40;;;;;;;2.44;86.81;103247.72;5075409;28;20125;-75
2022/01/28 07:15:58;;;;;;;13.93;3.05;;;;;;;2.41;86.77;103256.81;5075027;28;20234;-69
2022/01/28 07:18:24;;;;;;;17.80;3.95;;;;;;;2.38;86.90;103259.72;5074857;28;20035;-74
2022/01/28 07:20:49;;;;;;;17.27;3.80;;;;;;;2.38;86.94;103256.19;5075161;28;20039;-69
2022/01/28 07:23:14;;;;;;;15.55;3.70;;;;;;;2.34;86.45;103249.34;5074882;28;20118;-74
2022/01/28 07:25:40;;;;;;;17.05;3.88;;;;;;;2.33;86.80;103247.69;5107684;28;20032;-74
2022/01/28 07:28:05;;;;;;;15.23;3.72;;;;;;;2.37;88.24;103259.81;5074926;28;20383;-75
2022/01/28 07:30:31;;;;;;;13.73;3.40;;;;;;;2.36;87.95;103258.13;5075050;28;20456;-73
2022/01/28 07:32:58;;;;;;;13.95;3.40;;;;;;;2.35;87.46;103264.44;5075048;28;20130;-70
2022/01/28 07:35:24;;;;;;;13.07;3.45;;;;;;;2.34;86.58;103254.69;5074671;28;20033;-73
2022/01/28 07:37:49;;;;;;;14.35;3.45;;;;;;;2.34;86.84;103268.06;5074839;28;20030;-75
2022/01/28 07:40:14;;;;;;;15.13;3.00;;;;;;;2.30;87.56;103278.13;5074596;28;20032;-72
2022/01/28 07:42:40;;;;;;;17.23;3.80;;;;;;;2.30;87.46;103275.47;5074784;28;20074;-74
2022/01/28 07:45:07;;;;;;;10.57;3.58;;;;;;;2.29;86.91;103282.63;5074504;28;20036;-74
2022/01/28 07:47:33;;;;;;;15.40;3.40;;;;;;;2.29;87.04;103279.97;5073321;28;20090;-72
2022/01/28 07:49:58;;;;;;;15.07;3.47;;;;;;;2.30;87.39;103276.31;5074494;28;20220;-72
2022/01/28 07:52:24;;;;;;;12.02;3.60;;;;;;;2.30;87.32;103281.66;5073065;28;20754;-74
2022/01/28 07:54:50;;;;;;;10.60;3.50;;;;;;;2.29;86.86;103279.97;5074340;28;20033;-76
2022/01/28 07:57:16;;;;;;;17.65;3.60;;;;;;;2.21;87.40;103276.97;5074240;28;20020;-72
2022/01/28 07:59:41;;;;;;;15.90;3.42;;;;;;;2.25;87.10;103286.47;5074521;28;20106;-70
2022/01/28 08:02:07;;;;;;;15.32;3.72;;;;;;;2.23;86.64;103288.38;5071689;28;20107;-73
2022/01/28 08:04:32;;;;;;;14.43;3.80;;;;;;;2.24;87.01;103286.59;5074471;28;20036;-74
2022/01/28 08:06:58;;;;;;;12.18;3.38;;;;;;;2.23;86.70;103290.22;5074068;28;20074;-74
2022/01/28 08:09:23;;;;;;;18.77;4.28;;;;;;;2.25;87.12;103301.63;5072795;28;20081;-74
2022/01/28 08:11:48;;;;;;;14.82;3.67;;;;;;;2.25;87.12;103302.50;5106868;28;20028;-72
2022/01/28 08:14:14;;;;;;;17.80;4.00;;;;;;;2.27;87.77;103307.75;5073720;28;20035;-76
2022/01/28 08:16:40;;;;;;;16.00;4.18;;;;;;;2.23;87.49;103304.41;5074078;28;20363;-72
2022/01/28 08:19:05;;;;;;;10.23;3.70;;;;;;;2.29;86.84;103311.16;5074052;28;20032;-76
2022/01/28 08:21:30;;;;;;;15.70;4.53;;;;;;;2.32;87.06;103328.78;5074118;28;20085;-70
2022/01/28 08:23:56;;;;;;;17.80;4.35;;;;;;;2.29;87.18;103322.72;5074378;28;20112;-75
2022/01/28 08:26:24;;;;;;;16.08;4.93;;;;;;;2.34;87.10;103329.53;5072433;28;20123;-74
2022/01/28 08:28:49;;;;;;;12.32;3.75;;;;;;;2.39;87.69;103332.75;5074024;28;20082;-74
2022/01/28 08:31:15;;;;;;;15.68;4.57;;;;;;;2.46;87.54;103336.66;5072347;28;20024;-69
2022/01/28 08:33:40;;;;;;;17.58;4.72;;;;;;;2.53;88.29;103337.94;5072095;28;20039;-75
2022/01/28 08:36:06;;;;;;;15.98;4.53;;;;;;;2.57;87.92;103336.75;5073804;28;20063;-77
2022/01/28 08:38:44;;;;;;;17.17;4.80;;;;;;;2.59;88.14;103328.63;5073216;28;20044;-72
2022/01/28 08:41:12;;;;;;;15.35;4.28;;;;;;;2.66;88.26;103340.59;5073498;28;20029;-73
2022/01/28 08:43:38;;;;;;;14.52;4.88;;;;;;;2.71;88.55;103348.28;5073553;28;20028;-71
2022/01/28 08:46:04;;;;;;;13.57;4.82;;;;;;;2.74;88.88;103348.88;5073274;28;20107;-73
2022/01/28 08:48:29;;;;;;;14.25;4.80;;;;;;;2.79;88.77;103335.19;5073164;28;20028;-73
2022/01/28 08:50:54;;;;;;;20.92;5.00;;;;;;;2.88;89.11;103344.34;5106021;28;20024;-75
2022/01/28 08:53:20;;;;;;;19.23;5.10;;;;;;;2.92;89.56;103341.34;5073158;28;20113;-74
2022/01/28 08:55:45;;;;;;;18.50;5.35;;;;;;;2.95;89.89;103345.63;5073406;28;20380;-75
2022/01/28 08:58:11;;;;;;;16.95;4.72;;;;;;;2.98;88.82;103346.25;5072589;28;20051;-74
2022/01/28 09:00:37;;;;;;;14.80;5.30;;;;;;;3.05;89.74;103341.31;5070718;28;20035;-71
2022/01/28 09:03:03;;;;;;;19.55;5.72;;;;;;;3.08;89.79;103340.19;5073555;28;20405;-73
2022/01/28 09:05:28;;;;;;;18.05;5.38;;;;;;;3.14;90.01;103345.09;5072986;28;20113;-74
2022/01/28 09:07:54;;;;;;;15.27;5.20;;;;;;;3.15;89.81;103347.66;5071892;28;20460;-75
2022/01/28 09:10:24;;;;;;;22.25;5.30;;;;;;;3.19;89.86;103345.63;5073137;28;20112;-75
2022/01/28 09:13:10;;;;;;;22.23;5.90;;;;;;;3.27;90.18;103343.22;5072994;28;20028;-71
2022/01/28 09:15:37;;;;;;;21.20;6.20;;;;;;;3.30;90.31;103342.97;5072617;28;20036;-77
2022/01/28 09:18:03;;;;;;;17.48;5.75;;;;;;;3.34;90.76;103344.47;5072995;28;20472;-77
2022/01/28 09:20:31;;;;;;;24.73;6.60;;;;;;;3.39;90.78;103352.16;5072419;28;20074;-71
2022/01/28 09:22:58;;;;;;;21.45;6.78;;;;;;;3.41;91.05;103338.66;5072970;28;20033;-72
2022/01/28 09:25:23;;;;;;;19.60;6.53;;;;;;;3.47;91.01;103348.88;5072652;28;20108;-73
2022/01/28 09:27:49;;;;;;;19.13;6.03;;;;;;;3.50;91.00;103351.31;5072732;28;20111;-74
2022/01/28 09:30:14;;;;;;;22.38;6.10;;;;;;;3.54;91.20;103352.81;5071863;28;20464;-73
2022/01/28 09:32:40;;;;;;;29.02;6.55;;;;;;;3.58;91.31;103359.66;5072772;28;20443;-72
2022/01/28 09:35:05;;;;;;;20.60;5.97;;;;;;;3.64;91.36;103364.53;5072799;28;20037;-75
2022/01/28 09:37:31;;;;;;;28.23;7.13;;;;;;;3.69;91.65;103362.34;5104713;28;20028;-74
2022/01/28 09:39:56;;;;;;;18.70;6.28;;;;;;;3.74;92.13;103359.31;5072696;28;20056;-75
2022/01/28 09:42:26;;;;;;;19.63;5.82;;;;;;;3.77;92.11;103356.38;5072527;28;20460;-74
2022/01/28 09:44:54;;;;;;;24.00;7.30;;;;;;;3.83;91.85;103358.59;5072664;28;20138;-72
2022/01/28 09:47:21;;;;;;;25.23;6.60;;;;;;;3.90;92.15;103361.66;5071995;28;20483;-77
2022/01/28 09:49:47;;;;;;;21.88;6.43;;;;;;;3.95;91.45;103362.16;5104936;28;20395;-73
2022/01/28 09:52:13;;;;;;;24.10;6.55;;;;;;;4.00;91.73;103368.03;5072047;28;20029;-74
2022/01/28 09:54:39;;;;;;;29.15;6.78;;;;;;;4.04;92.05;103372.16;5072508;28;20349;-73
2022/01/28 09:57:06;;;;;;;23.70;7.22;;;;;;;4.12;91.99;103381.41;5071252;28;20138;-75
2022/01/28 09:59:32;;;;;;;23.08;6.90;;;;;;;4.18;92.08;103383.63;5072268;28;20052;-70
2022/01/28 10:01:57;;;;;;;23.85;7.00;;;;;;;4.24;91.98;103389.38;5069896;28;20079;-75
2022/01/28 10:04:23;;;;;;;24.05;6.63;;;;;;;4.26;92.05;103381.22;5072174;28;20040;-74
2022/01/28 10:06:49;;;;;;;20.63;7.20;;;;;;;4.32;92.21;103375.38;5072182;28;20472;-76
2022/01/28 10:09:18;;;;;;;28.85;7.53;;;;;;;4.39;92.33;103376.59;5072360;28;20513;-72
2022/01/28 10:11:47;;;;;;;26.27;7.28;;;;;;;4.45;91.93;103375.22;5072382;28;20036;-75
2022/01/28 10:14:19;;;;;;;22.35;6.75;;;;;;;4.52;91.61;103373.78;5072207;28;20033;-75
2022/01/28 10:16:58;;;;;;;;;;;;;;;4.63;91.05;103380.94;5105239;28;20068;-75
2022/01/28 10:19:37;;;;;;;25.38;6.60;;;;;;;4.64;91.41;103371.09;5071931;28;19919;-75
2022/01/28 10:22:15;;;;;;;27.63;6.85;;;;;;;4.69;91.21;103377.75;5072316;28;20025;-75
2022/01/28 10:24:40;;;;;;;23.02;6.20;;;;;;;4.81;90.75;103377.78;5072237;28;20025;-74
2022/01/28 10:27:06;;;;;;;21.25;6.07;;;;;;;4.82;91.04;103372.28;5072201;28;20115;-75
2022/01/28 10:29:34;;;;;;;29.45;6.80;;;;;;;4.87;91.15;103377.25;5071993;28;20036;-72
2022/01/28 10:32:11;;;;;;;24.08;6.05;;;;;;;4.97;90.77;103388.97;5070587;28;20031;-72
2022/01/28 10:34:39;;;;;;;22.60;5.97;;;;;;;5.06;90.67;103388.19;5072170;28;20036;-70
2022/01/28 10:37:25;;;;;;;26.40;6.28;;;;;;;5.12;90.66;103387.69;5071904;28;20468;-78
2022/01/28 10:39:50;;;;;;;22.30;6.53;;;;;;;5.20;89.65;103392.44;5071657;28;20517;-71
2022/01/28 10:42:20;;;;;;;23.20;6.03;;;;;;;5.23;89.87;103391.34;5106931;28;20040;-75
2022/01/28 10:44:59;;;;;;;20.30;6.28;;;;;;;5.29;90.31;103388.13;5075615;28;20503;-73
2022/01/28 10:47:55;;;;;;;26.52;6.82;;;;;;;5.40;90.12;103401.50;5108275;28;20078;-75
2022/01/28 10:50:22;;;;;;;24.13;6.65;;;;;;;5.40;89.73;103385.41;5070773;28;20052;-72
2022/01/28 10:52:58;;;;;;;21.33;7.10;;;;;;;5.45;89.64;103380.50;5075805;28;20029;-74
2022/01/28 10:55:23;;;;;;;22.90;6.90;;;;;;;5.44;89.74;103383.31;5075661;28;20108;-73
2022/01/28 10:57:57;;;;;;;24.73;6.50;;;;;;;5.50;89.80;103388.19;5108234;28;20111;-71
2022/01/28 11:00:25;;;;;;;24.88;5.45;;;;;;;5.53;88.67;103387.06;5074565;28;20024;-72
2022/01/28 11:02:53;;;;;;;19.23;5.35;;;;;;;5.55;88.76;103369.81;5074426;28;20469;-73
2022/01/28 11:05:19;;;;;;;23.75;5.75;;;;;;;5.62;88.57;103362.13;5107883;28;20024;-72
2022/01/28 11:07:44;;;;;;;20.52;6.00;;;;;;;5.65;88.42;103364.53;5075526;28;20071;-77
2022/01/28 11:10:09;;;;;;;27.85;6.07;;;;;;;5.70;87.83;103362.31;5075418;28;20035;-73
2022/01/28 11:12:35;;;;;;;17.75;4.93;;;;;;;5.73;87.34;103362.03;5075475;28;20365;-76
2022/01/28 11:15:00;;;;;;;19.55;5.05;;;;;;;5.82;86.68;103366.63;5075364;28;20028;-72
2022/01/28 11:17:25;;;;;;;20.27;5.22;;;;;;;5.80;86.50;103352.47;5075054;28;20115;-74
2022/01/28 11:19:52;;;;;;;20.95;5.22;;;;;;;5.83;87.07;103349.53;5075312;28;20028;-76
2022/01/28 11:22:56;;;;;;;20.55;5.25;;;;;;;5.92;87.89;103350.56;5107672;28;20468;-75
2022/01/28 11:25:36;;;;;;;22.08;4.65;;;;;;;5.98;85.20;103342.00;5074890;28;20028;-76
2022/01/28 11:28:07;;;;;;;19.77;4.30;;;;;;;6.00;85.97;103333.81;5075078;28;20107;-72
2022/01/28 11:30:33;;;;;;;19.70;4.40;;;;;;;6.06;86.28;103333.28;5074856;28;20031;-75
2022/01/28 11:33:06;;;;;;;20.77;5.22;;;;;;;6.09;86.49;103338.38;5075069;28;20028;-73
2022/01/28 11:35:33;;;;;;;18.85;4.28;;;;;;;6.17;84.65;103333.19;5074718;28;20028;-75
2022/01/28 11:38:04;;;;;;;20.65;3.72;;;;;;;6.23;83.46;103336.31;5074966;28;20036;-71
2022/01/28 11:41:10;;;;;;;14.03;3.33;;;;;;;6.24;83.47;103322.75;5073040;28;20067;-71
2022/01/28 11:43:45;;;;;;;19.02;3.80;;;;;;;6.15;83.34;103323.56;5073890;28;20271;-73
2022/01/28 11:46:19;;;;;;;16.48;3.40;;;;;;;6.14;83.33;103325.38;5074805;28;20119;-72
2022/01/28 11:49:02;;;;;;;19.42;4.00;;;;;;;6.17;83.35;103322.41;5073335;28;20040;-74
2022/01/28 11:51:39;;;;;;;21.52;4.00;;;;;;;6.15;83.62;103326.25;5074614;28;20020;-68
2022/01/28 11:54:10;;;;;;;20.30;3.78;;;;;;;6.17;83.09;103319.72;5074675;28;20028;-74
2022/01/28 11:56:40;;;;;;;18.02;3.65;;;;;;;6.25;81.79;103323.59;5074370;28;20028;-74
2022/01/28 11:59:10;;;;;;;13.27;3.05;;;;;;;6.29;80.99;103309.72;5074080;28;20098;-74
2022/01/28 12:01:35;;;;;;;15.13;2.90;;;;;;;6.36;80.03;103320.81;5071809;28;20290;-70
2022/01/28 12:04:30;;;;;;;21.13;3.25;;;;;;;6.39;80.55;103324.06;5074261;28;20491;-73
2022/01/28 12:07:15;;;;;;;17.48;4.15;;;;;;;6.41;80.41;103318.56;5074420;28;20027;-74
2022/01/28 12:09:50;;;;;;;16.45;3.40;;;;;;;6.45;81.02;103314.63;5074124;28;20056;-74
2022/01/28 12:12:40;;;;;;;12.93;3.78;;;;;;;6.54;80.74;103323.72;5072941;28;20024;-73
2022/01/28 12:15:12;;;;;;;15.07;3.97;;;;;;;6.59;80.56;103317.91;5069817;28;20515;-70
2022/01/28 12:17:42;;;;;;;17.88;3.50;;;;;;;6.66;78.41;103319.91;5073958;28;20048;-77
2022/01/28 12:20:19;;;;;;;17.45;3.50;;;;;;;6.68;78.78;103314.38;5106641;28;20031;-72
2022/01/28 12:23:00;;;;;;;10.70;3.03;;;;;;;6.73;78.70;103301.34;5074261;28;20028;-70
2022/01/28 12:25:40;;;;;;;21.92;4.05;;;;;;;6.72;78.28;103294.28;5073805;28;20483;-71
2022/01/28 12:28:25;;;;;;;15.05;3.40;;;;;;;6.70;76.87;103285.50;5106563;28;20399;-75
2022/01/28 12:30:59;;;;;;;17.33;3.95;;;;;;;6.60;78.13;103273.84;5073930;28;20086;-71
2022/01/28 12:33:27;;;;;;;15.63;3.90;;;;;;;6.54;78.08;103276.13;5073600;28;20029;-70
2022/01/28 12:35:56;;;;;;;19.38;3.70;;;;;;;6.56;77.92;103274.13;5073740;28;20035;-69
2022/01/28 12:38:24;;;;;;;20.85;5.70;;;;;;;6.56;78.21;103268.75;5073524;28;20115;-72
2022/01/28 12:40:54;;;;;;;20.35;5.78;;;;;;;6.56;79.18;103268.75;5073666;28;20032;-70
2022/01/28 12:43:22;;;;;;;20.70;5.32;;;;;;;6.53;78.29;103268.19;5073626;28;20039;-73
2022/01/28 12:46:02;;;;;;;17.58;7.07;;;;;;;6.54;79.19;103265.38;5073226;28;20107;-70
2022/01/28 12:48:28;;;;;;;22.02;6.80;;;;;;;6.53;79.03;103266.34;5072953;28;20086;-70
2022/01/28 12:50:55;;;;;;;17.98;6.43;;;;;;;6.55;79.32;103261.69;5073264;28;20029;-76